createdAt,value
2018-05-26T01:59:42.170Z,-72.00
2018-05-26T02:00:40.253Z,-72.00
2018-05-26T02:01:40.241Z,-72.00
2018-05-26T02:02:40.304Z,-72.00
2018-05-26T02:03:40.263Z,-72.00
2018-05-26T02:04:40.385Z,-72.00
2018-05-26T02:05:40.281Z,-72.00
2018-05-26T02:06:40.302Z,-72.00
2018-05-26T02:07:40.311Z,-79.00
2018-05-26T02:08:40.342Z,-79.00
2018-05-26T02:09:40.336Z,-79.00
2018-05-26T02:10:40.355Z,-79.00
2018-05-26T02:11:40.352Z,-79.00
2018-05-26T02:12:40.368Z,-79.00
2018-05-26T02:13:40.497Z,-79.00
2018-05-26T02:14:40.388Z,-79.00
2018-05-26T02:15:40.505Z,-79.00
2018-05-26T02:16:40.415Z,-79.00
2018-05-26T02:17:40.492Z,-79.00
2018-05-26T02:18:40.436Z,-79.00
2018-05-26T02:19:40.504Z,-79.00
2018-05-26T02:20:40.459Z,-79.00
2018-05-26T02:21:40.519Z,-79.00
2018-05-26T02:22:40.490Z,-79.00
2018-05-26T02:23:40.531Z,-79.00
2018-05-26T02:24:40.510Z,-79.00
2018-05-26T02:25:40.548Z,-79.00
2018-05-26T02:26:40.548Z,-79.00
2018-05-26T02:27:40.560Z,-79.00
2018-05-26T02:28:40.564Z,-79.00
2018-05-26T02:29:40.675Z,-79.00
2018-05-26T02:30:40.584Z,-79.00
2018-05-26T02:31:41.622Z,-79.00
2018-05-26T02:32:40.600Z,-79.00
2018-05-26T02:33:40.717Z,-79.00
2018-05-26T02:34:40.628Z,-79.00
2018-05-26T02:35:41.763Z,-79.00
2018-05-26T02:36:40.650Z,-79.00
2018-05-26T02:37:40.750Z,-79.00
2018-05-26T02:38:40.714Z,-79.00
2018-05-26T02:39:40.760Z,-79.00
2018-05-26T02:40:40.735Z,-79.00
2018-05-26T02:41:40.760Z,-79.00
2018-05-26T02:42:40.728Z,-79.00
2018-05-26T02:43:40.790Z,-79.00
2018-05-26T02:44:40.747Z,-79.00
2018-05-26T02:45:40.813Z,-79.00
2018-05-26T02:46:40.804Z,-79.00
2018-05-26T02:47:40.805Z,-79.00
2018-05-26T02:48:40.805Z,-79.00
2018-05-26T02:49:40.920Z,-79.00
2018-05-26T02:50:40.819Z,-79.00
2018-05-26T02:51:40.936Z,-79.00
2018-05-26T02:52:40.839Z,-79.00
2018-05-26T02:53:40.949Z,-79.00
2018-05-26T02:54:40.881Z,-79.00
2018-05-26T02:55:41.992Z,-79.00
2018-05-26T02:56:40.888Z,-79.00
2018-05-26T02:57:40.978Z,-79.00
2018-05-26T02:58:40.915Z,-79.00
2018-05-26T02:59:40.992Z,-79.00
2018-05-26T03:00:40.963Z,-79.00
2018-05-26T03:02:27.885Z,-79.00
2018-05-26T03:03:27.915Z,-79.00
2018-05-26T03:04:27.851Z,-79.00
2018-05-26T03:05:27.926Z,-79.00
2018-05-26T03:06:27.868Z,-79.00
2018-05-26T03:07:27.937Z,-79.00
2018-05-26T03:08:27.928Z,-79.00
2018-05-26T03:09:27.957Z,-79.00
2018-05-26T03:10:27.920Z,-79.00
2018-05-26T03:11:28.985Z,-79.00
2018-05-26T03:12:27.948Z,-79.00
2018-05-26T03:13:27.986Z,-79.00
2018-05-26T03:14:27.979Z,-79.00
2018-05-26T03:15:27.994Z,-79.00
2018-05-26T03:16:27.984Z,-79.00
2018-05-26T03:17:28.105Z,-79.00
2018-05-26T03:18:28.009Z,-79.00
2018-05-26T03:19:28.121Z,-79.00
2018-05-26T03:20:28.031Z,-79.00
2018-05-26T03:21:28.133Z,-79.00
2018-05-26T03:22:28.048Z,-79.00
2018-05-26T03:23:30.094Z,-79.00
2018-05-26T03:24:28.087Z,-79.00
2018-05-26T03:25:28.168Z,-79.00
2018-05-26T03:26:28.122Z,-79.00
2018-05-26T03:27:29.196Z,-79.00
2018-05-26T03:28:28.146Z,-79.00
2018-05-26T03:29:28.189Z,-79.00
2018-05-26T03:30:28.143Z,-79.00
2018-05-26T03:31:29.242Z,-79.00
2018-05-26T03:33:15.053Z,-79.00
2018-05-26T03:34:14.950Z,-79.00
2018-05-26T03:35:14.955Z,-79.00
2018-05-26T03:36:15.033Z,-79.00
2018-05-26T03:37:14.983Z,-79.00
2018-05-26T03:38:15.036Z,-79.00
2018-05-26T03:39:15.040Z,-79.00
2018-05-26T03:40:15.054Z,-79.00
2018-05-26T03:41:15.036Z,-79.00
2018-05-26T03:42:15.060Z,-79.00
2018-05-26T03:43:15.048Z,-79.00
2018-05-26T03:44:15.080Z,-79.00
2018-05-26T03:45:15.070Z,-79.00
2018-05-26T03:46:16.122Z,-80.00
2018-05-26T03:47:15.101Z,-79.00
2018-05-26T03:48:15.240Z,-79.00
2018-05-26T03:49:15.114Z,-79.00
2018-05-26T03:50:15.221Z,-79.00
2018-05-26T03:51:15.140Z,-79.00
2018-05-26T03:52:15.247Z,-79.00
2018-05-26T03:53:15.203Z,-79.00
2018-05-26T03:55:02.321Z,-79.00
2018-05-26T03:56:02.364Z,-79.00
2018-05-26T03:57:02.323Z,-79.00
2018-05-26T03:58:02.374Z,-79.00
2018-05-26T03:59:02.327Z,-79.00
2018-05-26T04:00:02.433Z,-79.00
2018-05-26T04:01:02.349Z,-79.00
2018-05-26T04:02:02.402Z,-79.00
2018-05-26T04:03:02.372Z,-80.00
2018-05-26T04:04:02.413Z,-79.00
2018-05-26T04:05:02.394Z,-79.00
2018-05-26T04:06:02.486Z,-79.00
2018-05-26T04:07:02.421Z,-79.00
2018-05-26T04:08:02.445Z,-79.00
2018-05-26T04:09:02.439Z,-79.00
2018-05-26T04:10:02.564Z,-79.00
2018-05-26T04:11:02.474Z,-79.00
2018-05-26T04:12:49.343Z,-79.00
2018-05-26T04:13:49.378Z,-79.00
2018-05-26T04:14:49.320Z,-79.00
2018-05-26T04:15:49.510Z,-78.00
2018-05-26T04:16:49.364Z,-79.00
2018-05-26T04:17:54.306Z,-79.00
2018-05-26T04:18:49.367Z,-79.00
2018-05-26T04:19:51.432Z,-78.00
2018-05-26T04:20:49.408Z,-79.00
2018-05-26T04:21:50.415Z,-79.00
2018-05-26T04:22:49.415Z,-79.00
2018-05-26T04:24:10.510Z,-78.00
2018-05-26T04:24:49.472Z,-78.00
2018-05-26T04:26:04.276Z,-79.00
2018-05-26T04:26:49.455Z,-79.00
2018-05-26T04:28:01.229Z,-79.00
2018-05-26T04:43:16.571Z,-71.00
2018-05-26T04:44:16.589Z,-71.00
2018-05-26T04:45:16.543Z,-71.00
2018-05-26T04:46:16.639Z,-71.00
2018-05-26T04:47:16.543Z,-71.00
2018-05-26T04:48:16.557Z,-71.00
2018-05-26T04:49:16.562Z,-72.00
2018-05-26T04:50:16.588Z,-72.00
2018-05-26T04:51:16.591Z,-72.00
2018-05-26T04:53:03.454Z,-72.00
2018-05-26T04:54:03.418Z,-72.00
2018-05-26T04:55:03.427Z,-72.00
2018-05-26T04:56:03.508Z,-72.00
2018-05-26T04:57:03.464Z,-72.00
2018-05-26T04:58:03.476Z,-72.00
2018-05-26T04:59:03.477Z,-72.00
2018-05-26T05:00:03.483Z,-72.00
2018-05-26T05:01:03.493Z,-72.00
2018-05-26T05:02:03.494Z,-72.00
2018-05-26T05:03:03.543Z,-72.00
2018-05-26T05:04:03.533Z,-72.00
2018-05-26T05:05:03.565Z,-72.00
2018-05-26T05:06:03.543Z,-72.00
2018-05-26T05:07:50.830Z,-72.00
2018-05-26T05:08:50.897Z,-72.00
2018-05-26T05:09:50.854Z,-72.00
2018-05-26T05:10:50.896Z,-72.00
2018-05-26T05:11:50.854Z,-72.00
2018-05-26T05:12:50.937Z,-72.00
2018-05-26T05:13:50.874Z,-72.00
2018-05-26T05:14:50.926Z,-72.00
2018-05-26T05:15:50.890Z,-72.00
2018-05-26T05:16:50.943Z,-72.00
2018-05-26T05:17:50.949Z,-72.00
2018-05-26T05:18:50.953Z,-72.00
2018-05-26T05:19:50.967Z,-72.00
2018-05-26T05:20:51.017Z,-72.00
2018-05-26T05:21:50.982Z,-72.00
2018-05-26T05:22:51.023Z,-72.00
2018-05-26T05:23:50.997Z,-72.00
2018-05-26T05:24:51.095Z,-72.00
2018-05-26T05:25:51.011Z,-72.00
2018-05-26T05:26:51.108Z,-72.00
2018-05-26T05:27:51.045Z,-72.00
2018-05-26T05:28:51.053Z,-72.00
2018-05-26T05:29:51.080Z,-72.00
2018-05-26T05:30:51.184Z,-72.00
2018-05-26T05:31:51.075Z,-71.00
2018-05-26T05:32:51.187Z,-72.00
2018-05-26T05:33:51.116Z,-72.00
2018-05-26T05:34:51.211Z,-72.00
2018-05-26T05:35:51.133Z,-72.00
2018-05-26T05:36:51.201Z,-72.00
2018-05-26T05:37:51.144Z,-72.00
2018-05-26T05:38:51.218Z,-72.00
2018-05-26T05:39:51.174Z,-71.00
2018-05-26T05:40:51.224Z,-72.00
2018-05-26T05:41:51.199Z,-72.00
2018-05-26T05:42:51.245Z,-72.00
2018-05-26T05:43:51.218Z,-72.00
2018-05-26T05:44:51.265Z,-72.00
2018-05-26T05:45:51.248Z,-71.00
2018-05-26T05:46:51.394Z,-72.00
2018-05-26T05:47:51.263Z,-72.00
2018-05-26T05:48:51.386Z,-72.00
2018-05-26T05:49:51.292Z,-72.00
2018-05-26T05:50:51.412Z,-72.00
2018-05-26T05:51:51.315Z,-72.00
2018-05-26T05:52:51.415Z,-72.00
2018-05-26T05:53:51.339Z,-71.00
2018-05-26T05:54:51.431Z,-71.00
2018-05-26T05:55:51.368Z,-72.00
2018-05-26T05:56:51.443Z,-72.00
2018-05-26T05:57:51.386Z,-72.00
2018-05-26T05:58:51.469Z,-72.00
2018-05-26T05:59:51.404Z,-72.00
2018-05-26T06:00:51.479Z,-72.00
2018-05-26T06:01:51.430Z,-72.00
2018-05-26T06:02:51.493Z,-72.00
2018-05-26T06:03:51.468Z,-72.00
2018-05-26T06:04:51.495Z,-72.00
2018-05-26T06:05:51.477Z,-72.00
2018-05-26T06:06:51.519Z,-72.00
2018-05-26T06:07:51.502Z,-72.00
2018-05-26T06:08:51.540Z,-72.00
2018-05-26T06:09:51.528Z,-72.00
2018-05-26T06:10:51.642Z,-72.00
2018-05-26T06:11:51.561Z,-72.00
2018-05-26T06:12:51.662Z,-72.00
2018-05-26T06:13:51.595Z,-72.00
2018-05-26T06:14:51.725Z,-72.00
2018-05-26T06:15:51.614Z,-72.00
2018-05-26T06:17:38.437Z,-72.00
2018-05-26T06:18:38.499Z,-72.00
2018-05-26T06:19:38.433Z,-71.00
2018-05-26T06:20:38.511Z,-72.00
2018-05-26T06:21:38.445Z,-72.00
2018-05-26T06:22:38.618Z,-72.00
2018-05-26T06:23:38.474Z,-72.00
2018-05-26T06:24:38.639Z,-72.00
2018-05-26T06:25:38.505Z,-72.00
2018-05-26T06:26:38.657Z,-72.00
2018-05-26T06:27:38.634Z,-72.00
2018-05-26T06:28:38.609Z,-72.00
2018-05-26T06:29:38.543Z,-72.00
2018-05-26T06:30:38.634Z,-72.00
2018-05-26T06:31:38.566Z,-72.00
2018-05-26T06:32:38.632Z,-72.00
2018-05-26T06:33:38.604Z,-72.00
2018-05-26T06:34:38.654Z,-72.00
2018-05-26T06:36:25.510Z,-72.00
2018-05-26T06:37:25.417Z,-72.00
2018-05-26T06:38:25.400Z,-72.00
2018-05-26T06:39:25.473Z,-72.00
2018-05-26T06:40:25.423Z,-72.00
2018-05-26T06:41:25.478Z,-71.00
2018-05-26T06:42:25.452Z,-72.00
2018-05-26T06:43:25.521Z,-71.00
2018-05-26T06:44:25.473Z,-72.00
2018-05-26T06:45:25.500Z,-72.00
2018-05-26T06:46:25.494Z,-72.00
2018-05-26T06:47:25.516Z,-72.00
2018-05-26T06:48:25.523Z,-72.00
2018-05-26T06:49:25.641Z,-72.00
2018-05-26T06:50:25.526Z,-72.00
2018-05-26T06:51:25.643Z,-72.00
2018-05-26T06:52:25.556Z,-72.00
2018-05-26T06:53:25.658Z,-71.00
2018-05-26T06:54:25.600Z,-72.00
2018-05-26T06:55:25.717Z,-71.00
2018-05-26T06:56:25.604Z,-72.00
2018-05-26T06:57:25.692Z,-71.00
2018-05-26T06:58:25.623Z,-72.00
2018-05-26T06:59:25.704Z,-71.00
2018-05-26T07:00:25.640Z,-71.00
2018-05-26T07:01:25.717Z,-72.00
2018-05-26T07:02:25.671Z,-72.00
2018-05-26T07:03:25.733Z,-72.00
2018-05-26T07:05:12.488Z,-72.00
2018-05-26T07:06:12.411Z,-72.00
2018-05-26T07:07:12.426Z,-71.00
2018-05-26T07:08:12.444Z,-72.00
2018-05-26T07:09:12.444Z,-72.00
2018-05-26T07:10:12.554Z,-72.00
2018-05-26T07:11:12.467Z,-71.00
2018-05-26T07:12:12.574Z,-72.00
2018-05-26T07:13:12.490Z,-72.00
2018-05-26T07:14:12.623Z,-72.00
2018-05-26T07:15:12.524Z,-72.00
2018-05-26T07:16:12.598Z,-72.00
2018-05-26T07:17:12.547Z,-72.00
2018-05-26T07:18:12.616Z,-72.00
2018-05-26T07:19:12.555Z,-72.00
2018-05-26T07:20:12.625Z,-72.00
2018-05-26T07:21:12.591Z,-72.00
2018-05-26T07:22:12.635Z,-72.00
2018-05-26T07:23:12.603Z,-72.00
2018-05-26T07:24:13.685Z,-72.00
2018-05-26T07:25:12.627Z,-72.00
2018-05-26T07:26:12.672Z,-72.00
2018-05-26T07:27:12.644Z,-72.00
2018-05-26T07:28:12.675Z,-72.00
2018-05-26T07:29:12.677Z,-72.00
2018-05-26T07:30:12.791Z,-71.00
2018-05-26T07:31:12.694Z,-71.00
2018-05-26T07:32:12.817Z,-72.00
2018-05-26T07:33:12.713Z,-72.00
2018-05-26T07:34:12.817Z,-72.00
2018-05-26T07:35:12.743Z,-71.00
2018-05-26T07:36:12.836Z,-72.00
2018-05-26T07:37:12.780Z,-72.00
2018-05-26T07:38:12.848Z,-72.00
2018-05-26T07:39:12.784Z,-72.00
2018-05-26T07:40:12.859Z,-71.00
2018-05-26T07:41:12.801Z,-71.00
2018-05-26T07:42:12.910Z,-72.00
2018-05-26T07:43:12.830Z,-72.00
2018-05-26T07:44:12.886Z,-71.00
2018-05-26T07:45:12.854Z,-71.00
2018-05-26T07:46:12.901Z,-72.00
2018-05-26T07:47:12.934Z,-72.00
2018-05-26T07:48:12.910Z,-71.00
2018-05-26T07:49:12.902Z,-72.00
2018-05-26T07:50:13.032Z,-72.00
2018-05-26T07:51:12.928Z,-72.00
2018-05-26T07:52:13.039Z,-72.00
2018-05-26T07:53:13.022Z,-71.00
2018-05-26T07:54:13.052Z,-72.00
2018-05-26T07:55:12.997Z,-71.00
2018-05-26T07:56:13.070Z,-71.00
2018-05-26T07:57:13.000Z,-71.00
2018-05-26T07:58:13.131Z,-71.00
2018-05-26T08:00:00.052Z,-72.00
2018-05-26T08:00:59.929Z,-71.00
2018-05-26T08:01:59.944Z,-72.00
2018-05-26T08:03:00.069Z,-72.00
2018-05-26T08:03:59.947Z,-72.00
2018-05-26T08:05:00.028Z,-72.00
2018-05-26T08:05:59.977Z,-72.00
2018-05-26T08:07:00.026Z,-72.00
2018-05-26T08:08:00.007Z,-72.00
2018-05-26T08:09:00.039Z,-72.00
2018-05-26T08:10:00.028Z,-71.00
2018-05-26T08:11:00.065Z,-71.00
2018-05-26T08:12:00.043Z,-71.00
2018-05-26T08:13:00.178Z,-71.00
2018-05-26T08:14:00.073Z,-71.00
2018-05-26T08:15:00.190Z,-71.00
2018-05-26T08:16:00.119Z,-71.00
2018-05-26T08:17:00.188Z,-71.00
2018-05-26T08:18:00.171Z,-71.00
2018-05-26T08:19:00.217Z,-71.00
2018-05-26T08:20:00.148Z,-71.00
2018-05-26T08:21:00.216Z,-71.00
2018-05-26T08:22:00.188Z,-70.00
2018-05-26T08:23:00.228Z,-71.00
2018-05-26T08:24:00.202Z,-71.00
2018-05-26T08:25:00.283Z,-71.00
2018-05-26T08:26:47.112Z,-71.00
2018-05-26T08:27:46.988Z,-71.00
2018-05-26T08:28:47.022Z,-71.00
2018-05-26T08:29:47.065Z,-71.00
2018-05-26T08:30:47.038Z,-70.00
2018-05-26T08:31:47.106Z,-71.00
2018-05-26T08:32:47.056Z,-71.00
2018-05-26T08:33:47.115Z,-71.00
2018-05-26T08:34:47.095Z,-71.00
2018-05-26T08:36:33.862Z,-71.00
2018-05-26T08:37:33.923Z,-71.00
2018-05-26T08:38:33.874Z,-71.00
2018-05-26T08:39:33.939Z,-71.00
2018-05-26T08:40:33.899Z,-71.00
2018-05-26T08:41:33.942Z,-71.00
2018-05-26T08:42:33.909Z,-71.00
2018-05-26T08:43:33.963Z,-71.00
2018-05-26T08:44:33.940Z,-71.00
2018-05-26T08:45:33.991Z,-79.00
2018-05-26T08:46:33.963Z,-78.00
2018-05-26T08:47:34.078Z,-78.00
2018-05-26T08:48:33.986Z,-78.00
2018-05-26T08:49:34.098Z,-78.00
2018-05-26T08:50:34.019Z,-78.00
2018-05-26T08:51:34.100Z,-78.00
2018-05-26T08:52:34.035Z,-78.00
2018-05-26T08:53:34.114Z,-78.00
2018-05-26T08:54:34.105Z,-78.00
2018-05-26T08:55:34.137Z,-78.00
2018-05-26T08:56:34.099Z,-78.00
2018-05-26T08:57:34.156Z,-79.00
2018-05-26T08:58:34.136Z,-78.00
2018-05-26T08:59:34.151Z,-77.00
2018-05-26T09:00:34.146Z,-78.00
2018-05-26T09:02:26.004Z,-78.00
2018-05-26T09:03:25.991Z,-78.00
2018-05-26T09:04:25.959Z,-78.00
2018-05-26T09:05:26.008Z,-79.00
2018-05-26T09:06:25.981Z,-79.00
2018-05-26T09:07:26.163Z,-78.00
2018-05-26T09:08:25.998Z,-79.00
2018-05-26T09:09:26.030Z,-79.00
2018-05-26T09:10:26.073Z,-78.00
2018-05-26T09:11:26.136Z,-78.00
2018-05-26T09:12:26.049Z,-70.00
2018-05-26T09:13:26.164Z,-71.00
2018-05-26T09:14:26.092Z,-71.00
2018-05-26T09:15:26.165Z,-71.00
2018-05-26T09:16:26.154Z,-71.00
2018-05-26T09:17:26.203Z,-71.00
2018-05-26T09:18:26.141Z,-71.00
2018-05-26T09:19:26.201Z,-71.00
2018-05-26T09:20:26.148Z,-71.00
2018-05-26T09:21:26.206Z,-71.00
2018-05-26T09:22:26.177Z,-71.00
2018-05-26T09:23:26.217Z,-71.00
2018-05-26T09:24:26.205Z,-71.00
2018-05-26T09:25:26.287Z,-71.00
2018-05-26T09:26:26.229Z,-71.00
2018-05-26T09:27:26.354Z,-71.00
2018-05-26T09:28:26.263Z,-71.00
2018-05-26T09:29:26.362Z,-71.00
2018-05-26T09:30:26.289Z,-71.00
2018-05-26T09:31:26.378Z,-71.00
2018-05-26T09:32:26.317Z,-71.00
2018-05-26T09:33:26.384Z,-71.00
2018-05-26T09:34:26.341Z,-71.00
2018-05-26T09:35:26.406Z,-71.00
2018-05-26T09:36:26.362Z,-71.00
2018-05-26T09:37:26.413Z,-71.00
2018-05-26T09:38:26.392Z,-71.00
2018-05-26T09:39:26.424Z,-71.00
2018-05-26T09:40:26.422Z,-72.00
2018-05-26T09:41:26.586Z,-72.00
2018-05-26T09:42:26.469Z,-72.00
2018-05-26T09:43:26.553Z,-72.00
2018-05-26T09:44:26.481Z,-72.00
2018-05-26T09:45:26.569Z,-72.00
2018-05-26T09:46:26.509Z,-72.00
2018-05-26T09:47:26.595Z,-72.00
2018-05-26T09:48:26.543Z,-72.00
2018-05-26T09:49:26.634Z,-72.00
2018-05-26T09:50:26.578Z,-72.00
2018-05-26T09:51:26.613Z,-72.00
2018-05-26T09:52:26.598Z,-72.00
2018-05-26T09:53:26.621Z,-71.00
2018-05-26T09:54:26.619Z,-71.00
2018-05-26T09:55:26.738Z,-71.00
2018-05-26T09:56:26.722Z,-71.00
2018-05-26T09:57:26.748Z,-77.00
2018-05-26T09:58:26.696Z,-77.00
2018-05-26T09:59:26.759Z,-78.00
2018-05-26T10:00:26.765Z,-77.00
2018-05-26T10:01:27.055Z,-77.00
2018-05-26T10:02:26.735Z,-76.00
2018-05-26T10:03:26.795Z,-77.00
2018-05-26T10:04:26.774Z,-77.00
2018-05-26T10:05:26.806Z,-78.00
2018-05-26T10:06:26.840Z,-78.00
2018-05-26T10:08:13.580Z,-77.00
2018-05-26T10:09:13.621Z,-78.00
2018-05-26T10:10:13.601Z,-78.00
2018-05-26T10:11:13.632Z,-78.00
2018-05-26T10:12:13.599Z,-77.00
2018-05-26T10:13:13.640Z,-76.00
2018-05-26T10:14:13.631Z,-77.00
2018-05-26T10:15:13.699Z,-77.00
2018-05-26T10:16:13.674Z,-77.00
2018-05-26T10:17:13.772Z,-77.00
2018-05-26T10:18:13.685Z,-77.00
2018-05-26T10:19:13.786Z,-76.00
2018-05-26T10:20:13.717Z,-76.00
2018-05-26T10:21:14.839Z,-76.00
2018-05-26T10:22:13.739Z,-77.00
2018-05-26T10:23:13.825Z,-77.00
2018-05-26T10:24:13.765Z,-77.00
2018-05-26T10:25:13.823Z,-77.00
2018-05-26T10:26:13.845Z,-77.00
2018-05-26T10:27:13.892Z,-76.00
2018-05-26T10:28:13.830Z,-78.00
2018-05-26T10:29:13.956Z,-77.00
2018-05-26T10:30:13.850Z,-78.00
2018-05-26T10:31:13.960Z,-77.00
2018-05-26T10:32:13.889Z,-77.00
2018-05-26T10:33:13.977Z,-77.00
2018-05-26T10:34:13.915Z,-77.00
2018-05-26T10:35:13.991Z,-77.00
2018-05-26T10:36:13.951Z,-77.00
2018-05-26T10:37:14.006Z,-77.00
2018-05-26T10:38:14.072Z,-76.00
2018-05-26T10:39:14.016Z,-76.00
2018-05-26T10:40:13.998Z,-77.00
2018-05-26T10:41:14.135Z,-77.00
2018-05-26T10:42:14.035Z,-78.00
2018-05-26T10:43:14.145Z,-77.00
2018-05-26T10:44:14.072Z,-77.00
2018-05-26T10:45:14.183Z,-77.00
2018-05-26T10:46:14.148Z,-77.00
2018-05-26T10:47:14.176Z,-77.00
2018-05-26T10:48:14.129Z,-77.00
2018-05-26T10:49:14.223Z,-77.00
2018-05-26T10:50:14.167Z,-76.00
2018-05-26T10:51:14.197Z,-77.00
2018-05-26T10:52:14.174Z,-77.00
2018-05-26T10:53:14.219Z,-76.00
2018-05-26T10:54:14.197Z,-77.00
2018-05-26T10:55:14.333Z,-77.00
2018-05-26T10:56:14.238Z,-76.00
2018-05-26T10:57:14.343Z,-77.00
2018-05-26T10:58:14.269Z,-77.00
2018-05-26T10:59:14.345Z,-77.00
2018-05-26T11:00:14.298Z,-77.00
2018-05-26T11:01:14.375Z,-78.00
2018-05-26T11:03:01.217Z,-78.00
2018-05-26T11:04:01.107Z,-77.00
2018-05-26T11:05:01.193Z,-77.00
2018-05-26T11:06:01.149Z,-76.00
2018-05-26T11:07:01.197Z,-76.00
2018-05-26T11:08:01.170Z,-77.00
2018-05-26T11:09:01.237Z,-76.00
2018-05-26T11:10:01.253Z,-77.00
2018-05-26T11:11:01.364Z,-77.00
2018-05-26T11:12:48.186Z,-77.00
2018-05-26T11:13:48.068Z,-77.00
2018-05-26T11:14:48.079Z,-77.00
2018-05-26T11:15:48.140Z,-77.00
2018-05-26T11:16:48.108Z,-77.00
2018-05-26T11:17:48.343Z,-77.00
2018-05-26T11:18:48.169Z,-77.00
2018-05-26T11:19:48.281Z,-77.00
2018-05-26T11:20:48.173Z,-77.00
2018-05-26T11:21:48.291Z,-77.00
2018-05-26T11:22:48.222Z,-77.00
2018-05-26T11:23:48.330Z,-78.00
2018-05-26T11:24:48.312Z,-79.00
2018-05-26T11:25:48.381Z,-78.00
2018-05-26T11:26:48.274Z,-79.00
2018-05-26T11:27:48.317Z,-78.00
2018-05-26T11:28:48.329Z,-77.00
2018-05-26T11:30:35.329Z,-72.00
2018-05-26T11:31:35.265Z,-72.00
2018-05-26T11:32:35.244Z,-72.00
2018-05-26T11:33:35.298Z,-72.00
2018-05-26T11:34:35.261Z,-72.00
2018-05-26T11:35:35.273Z,-72.00
2018-05-26T11:36:35.261Z,-72.00
2018-05-26T11:37:35.412Z,-77.00
2018-05-26T11:38:35.316Z,-78.00
2018-05-26T11:39:35.400Z,-78.00
2018-05-26T11:40:35.314Z,-78.00
2018-05-26T11:41:35.431Z,-77.00
2018-05-26T11:42:35.344Z,-77.00
2018-05-26T11:43:35.461Z,-77.00
2018-05-26T11:44:35.454Z,-76.00
2018-05-26T11:45:35.462Z,-75.00
2018-05-26T11:46:35.427Z,-76.00
2018-05-26T11:47:35.446Z,-77.00
2018-05-26T11:48:35.440Z,-77.00
2018-05-26T11:49:35.571Z,-76.00
2018-05-26T11:50:35.494Z,-78.00
2018-05-26T11:51:35.583Z,-77.00
2018-05-26T11:52:35.509Z,-77.00
2018-05-26T11:54:22.403Z,-77.00
2018-05-26T11:55:22.412Z,-77.00
2018-05-26T11:56:22.351Z,-77.00
2018-05-26T11:57:22.449Z,-77.00
2018-05-26T11:58:22.417Z,-78.00
2018-05-26T11:59:22.522Z,-78.00
2018-05-26T12:00:22.431Z,-77.00
2018-05-26T12:01:22.548Z,-77.00
2018-05-26T12:02:22.460Z,-77.00
2018-05-26T12:03:22.541Z,-77.00
2018-05-26T12:04:22.480Z,-78.00
2018-05-26T12:05:22.553Z,-78.00
2018-05-26T12:06:22.536Z,-76.00
2018-05-26T12:07:22.523Z,-76.00
2018-05-26T12:08:22.543Z,-76.00
2018-05-26T12:10:09.354Z,-77.00
2018-05-26T12:11:09.440Z,-77.00
2018-05-26T12:13:04.659Z,-77.00
2018-05-26T12:14:04.706Z,-77.00
2018-05-26T12:15:04.666Z,-76.00
2018-05-26T12:16:04.731Z,-75.00
2018-05-26T12:17:04.683Z,-77.00
2018-05-26T12:18:04.725Z,-77.00
2018-05-26T12:19:04.723Z,-77.00
2018-05-26T12:20:04.838Z,-77.00
2018-05-26T12:21:04.748Z,-76.00
2018-05-26T12:22:04.846Z,-77.00
2018-05-26T12:23:04.782Z,-77.00
2018-05-26T12:24:05.911Z,-77.00
2018-05-26T12:25:04.833Z,-77.00
2018-05-26T12:26:04.883Z,-76.00
2018-05-26T12:27:04.839Z,-78.00
2018-05-26T12:28:04.942Z,-77.00
2018-05-26T12:29:04.866Z,-77.00
2018-05-26T12:30:04.912Z,-77.00
2018-05-26T12:31:04.895Z,-77.00
2018-05-26T12:32:05.028Z,-77.00
2018-05-26T12:33:04.934Z,-77.00
2018-05-26T12:34:05.060Z,-77.00
2018-05-26T12:35:04.983Z,-77.00
2018-05-26T12:36:51.845Z,-78.00
2018-05-26T12:37:51.846Z,-77.00
2018-05-26T12:38:51.829Z,-77.00
2018-05-26T12:39:51.863Z,-77.00
2018-05-26T12:40:51.838Z,-78.00
2018-05-26T12:41:51.877Z,-77.00
2018-05-26T12:42:51.877Z,-76.00
2018-05-26T12:43:51.992Z,-77.00
2018-05-26T12:44:51.908Z,-77.00
2018-05-26T12:45:52.027Z,-77.00
2018-05-26T12:46:51.958Z,-76.00
2018-05-26T12:47:52.037Z,-76.00
2018-05-26T12:48:51.997Z,-77.00
2018-05-26T12:49:52.038Z,-77.00
2018-05-26T12:50:52.059Z,-77.00
2018-05-26T12:51:52.084Z,-77.00
2018-05-26T12:52:52.028Z,-77.00
2018-05-26T12:53:52.161Z,-77.00
2018-05-26T12:54:52.070Z,-77.00
2018-05-26T12:55:53.187Z,-77.00
2018-05-26T12:56:52.133Z,-76.00
2018-05-26T12:57:52.205Z,-76.00
2018-05-26T12:58:52.134Z,-76.00
2018-05-26T12:59:52.199Z,-76.00
2018-05-26T13:00:52.198Z,-76.00
2018-05-26T13:01:52.237Z,-77.00
2018-05-26T13:02:52.196Z,-76.00
2018-05-26T13:03:52.257Z,-77.00
2018-05-26T13:04:52.320Z,-77.00
2018-05-26T13:05:52.340Z,-77.00
2018-05-26T13:06:52.251Z,-77.00
2018-05-26T13:07:52.348Z,-77.00
2018-05-26T13:08:52.284Z,-76.00
2018-05-26T13:09:52.358Z,-77.00
2018-05-26T13:10:52.397Z,-76.00
2018-05-26T13:11:52.371Z,-77.00
2018-05-26T13:12:52.355Z,-76.00
2018-05-26T13:13:52.389Z,-77.00
2018-05-26T13:14:52.396Z,-77.00
2018-05-26T13:15:52.498Z,-77.00
2018-05-26T13:16:52.412Z,-77.00
2018-05-26T13:17:52.519Z,-77.00
2018-05-26T13:18:52.468Z,-77.00
2018-05-26T13:19:52.532Z,-77.00
2018-05-26T13:20:52.472Z,-78.00
2018-05-26T13:21:52.571Z,-78.00
2018-05-26T13:22:52.509Z,-77.00
2018-05-26T13:23:52.567Z,-77.00
2018-05-26T13:24:52.553Z,-77.00
2018-05-26T13:25:52.597Z,-78.00
2018-05-26T13:26:52.658Z,-77.00
2018-05-26T13:27:52.713Z,-77.00
2018-05-26T13:28:52.603Z,-77.00
2018-05-26T13:29:52.708Z,-77.00
2018-05-26T13:30:52.679Z,-78.00
2018-05-26T13:32:40.287Z,-77.00
2018-05-26T13:33:40.350Z,-77.00
2018-05-26T13:34:40.297Z,-77.00
2018-05-26T13:35:40.375Z,-78.00
2018-05-26T13:36:40.324Z,-78.00
2018-05-26T13:37:40.360Z,-77.00
2018-05-26T13:38:40.377Z,-78.00
2018-05-26T13:39:40.474Z,-77.00
2018-05-26T13:40:40.511Z,-77.00
2018-05-26T13:41:40.484Z,-78.00
2018-05-26T13:42:40.425Z,-77.00
2018-05-26T13:43:40.495Z,-77.00
2018-05-26T13:44:40.444Z,-77.00
2018-05-26T13:45:40.562Z,-77.00
2018-05-26T13:46:40.536Z,-77.00
2018-05-26T13:47:40.529Z,-77.00
2018-05-26T13:48:40.539Z,-77.00
2018-05-26T13:49:40.664Z,-78.00
2018-05-26T13:50:40.607Z,-77.00
2018-05-26T13:51:40.650Z,-77.00
2018-05-26T13:52:40.584Z,-77.00
2018-05-26T13:53:40.816Z,-77.00
2018-05-26T13:54:40.643Z,-78.00
2018-05-26T13:55:41.730Z,-77.00
2018-05-26T13:56:40.636Z,-78.00
2018-05-26T13:57:40.694Z,-77.00
2018-05-26T13:58:40.912Z,-79.00
2018-05-26T13:59:40.822Z,-78.00
2018-05-26T14:00:40.707Z,-79.00
2018-05-26T14:01:40.869Z,-79.00
2018-05-26T14:02:40.733Z,-79.00
2018-05-26T14:03:40.842Z,-78.00
2018-05-26T14:05:27.677Z,-78.00
2018-05-26T14:06:27.631Z,-78.00
2018-05-26T14:07:27.609Z,-79.00
2018-05-26T14:08:27.662Z,-78.00
2018-05-26T14:09:27.663Z,-78.00
2018-05-26T14:10:27.780Z,-78.00
2018-05-26T14:11:27.692Z,-79.00
2018-05-26T14:12:27.718Z,-80.00
2018-05-26T14:13:27.861Z,-78.00
2018-05-26T14:14:27.746Z,-79.00
2018-05-26T14:15:27.853Z,-79.00
2018-05-26T14:17:15.268Z,-78.00
2018-05-26T14:18:15.081Z,-79.00
2018-05-26T14:19:15.129Z,-79.00
2018-05-26T14:20:15.142Z,-78.00
2018-05-26T14:21:15.127Z,-79.00
2018-05-26T14:22:15.141Z,-79.00
2018-05-26T14:23:15.282Z,-79.00
2018-05-26T14:24:15.197Z,-79.00
2018-05-26T14:25:15.355Z,-79.00
2018-05-26T14:26:15.277Z,-78.00
2018-05-26T14:27:15.672Z,-79.00
2018-05-26T14:28:15.303Z,-79.00
2018-05-26T14:29:15.378Z,-78.00
2018-05-26T14:30:15.346Z,-79.00
2018-05-26T14:31:15.330Z,-78.00
2018-05-26T14:32:15.310Z,-78.00
2018-05-26T14:33:15.441Z,-79.00
2018-05-26T14:34:15.342Z,-79.00
2018-05-26T14:35:15.465Z,-78.00
2018-05-26T14:36:15.405Z,-79.00
2018-05-26T14:37:15.457Z,-78.00
2018-05-26T14:39:02.301Z,-80.00
2018-05-26T14:40:02.213Z,-79.00
2018-05-26T14:41:02.247Z,-78.00
2018-05-26T14:42:02.278Z,-78.00
2018-05-26T14:43:02.267Z,-79.00
2018-05-26T14:44:02.383Z,-78.00
2018-05-26T14:45:02.315Z,-78.00
2018-05-26T14:46:02.412Z,-78.00
2018-05-26T14:47:02.327Z,-79.00
2018-05-26T14:48:02.432Z,-78.00
2018-05-26T14:49:02.366Z,-79.00
2018-05-26T14:50:02.523Z,-78.00
2018-05-26T14:51:02.401Z,-78.00
2018-05-26T14:52:02.447Z,-78.00
2018-05-26T14:53:02.446Z,-78.00
2018-05-26T14:54:02.553Z,-78.00
2018-05-26T14:55:02.461Z,-78.00
2018-05-26T14:56:02.569Z,-78.00
2018-05-26T14:57:02.508Z,-78.00
2018-05-26T14:58:02.594Z,-78.00
2018-05-26T14:59:02.536Z,-78.00
2018-05-26T15:00:02.613Z,-78.00
2018-05-26T15:01:02.563Z,-78.00
2018-05-26T15:02:02.611Z,-78.00